This is the latest recevied weather packets stored in our database for station/object EA7AIS-10. If no packets are shown the sender has not sent any weather packets the latest 10 day(s).
| Time | Temp. | Humidity | Pressure | Rain* | Wind** | Luminosity | Snow |
|---|---|---|---|---|---|---|---|
| 1777404646 | 17.78° C | 86% | 1008 hPa | - | - | - | - |
| 1777403746 | 18.33° C | 85% | 1007.9 hPa | - | - | - | - |
| 1777402847 | 18.33° C | 84% | 1007.8 hPa | - | - | - | - |
| 1777400146 | 20° C | 78% | 1007.9 hPa | - | - | - | - |
| 1777399246 | 20° C | 77% | 1007.8 hPa | - | - | - | - |
| 1777397446 | 20.56° C | 77% | 1007.8 hPa | - | - | - | - |
| 1777396546 | 20.56° C | 74% | 1007.8 hPa | - | - | - | - |
| 1777393845 | 21.11° C | 73% | 1008.2 hPa | - | - | - | - |
| 1777392945 | 21.11° C | 73% | 1008 hPa | - | - | - | - |
| 1777392046 | 21.11° C | 73% | 1008.2 hPa | - | - | - | - |
| 1777390245 | 22.22° C | 70% | 1008.5 hPa | - | - | - | - |
| 1777389345 | 22.22° C | 69% | 1008.8 hPa | - | - | - | - |
| 1777387545 | 22.22° C | 70% | 1009 hPa | - | - | - | - |
| 1777386645 | 22.78° C | 68% | 1009.2 hPa | - | - | - | - |
| 1777385745 | 22.78° C | 67% | 1009.4 hPa | - | - | - | - |
| 1777384845 | 22.78° C | 67% | 1009.4 hPa | - | - | - | - |
| 1777383946 | 22.78° C | 67% | 1009.6 hPa | - | - | - | - |
| 1777383045 | 22.78° C | 68% | 1009.6 hPa | - | - | - | - |
| 1777378544 | 22.78° C | 67% | 1010 hPa | - | - | - | - |
| 1777377644 | 23.89° C | 64% | 1010 hPa | - | - | - | - |
| 1777374044 | 23.33° C | 66% | 1010.3 hPa | - | - | - | - |
| 1777373144 | 23.33° C | 68% | 1010.4 hPa | - | - | - | - |
| 1777372244 | 22.78° C | 69% | 1010.4 hPa | - | - | - | - |
| 1777371344 | 22.22° C | 71% | 1010.4 hPa | - | - | - | - |
| 1777370444 | 21.67° C | 73% | 1010.3 hPa | - | - | - | - |
* Rain since midnight (hover to see other rain measurements)
** Current wind speed in m/s (hover to see current wind gust speed)